createdAt,value
2018-11-10T00:01:33.027Z,11.03
2018-11-10T00:07:12.975Z,11.10
2018-11-10T00:09:41.282Z,11.23
2018-11-10T00:12:10.150Z,10.13
2018-11-10T00:14:38.488Z,10.93
2018-11-10T00:17:07.075Z,10.57
2018-11-10T00:19:35.623Z,9.77
2018-11-10T00:22:03.932Z,10.50
2018-11-10T00:24:32.260Z,9.87
2018-11-10T00:27:01.104Z,9.80
2018-11-10T00:29:29.464Z,9.80
2018-11-10T00:31:57.783Z,9.67
2018-11-10T00:34:26.163Z,9.60
2018-11-10T00:36:54.629Z,9.37
2018-11-10T00:39:23.303Z,8.73
2018-11-10T00:41:51.605Z,9.27
2018-11-10T00:44:20.240Z,9.60
2018-11-10T00:46:48.564Z,8.93
2018-11-10T00:49:16.926Z,8.67
2018-11-10T00:51:45.288Z,8.60
2018-11-10T00:54:13.943Z,9.13
2018-11-10T00:56:42.274Z,8.67
2018-11-10T00:59:11.248Z,9.43
2018-11-10T01:01:39.911Z,9.20
2018-11-10T01:04:08.239Z,8.80
2018-11-10T01:06:36.556Z,8.40
2018-11-10T01:09:06.790Z,8.60
2018-11-10T01:11:35.376Z,8.53
2018-11-10T01:14:03.692Z,8.87
2018-11-10T01:16:31.968Z,8.03
2018-11-10T01:19:00.310Z,8.60
2018-11-10T01:21:28.706Z,9.03
2018-11-10T01:23:57.033Z,8.80
2018-11-10T01:26:25.310Z,8.27
2018-11-10T01:28:53.811Z,8.57
2018-11-10T01:31:22.174Z,8.47
2018-11-10T01:33:50.455Z,8.93
2018-11-10T01:36:18.819Z,8.30
2018-11-10T01:38:47.121Z,8.47
2018-11-10T01:41:15.425Z,8.37
2018-11-10T01:43:43.672Z,8.60
2018-11-10T01:46:11.990Z,8.37
2018-11-10T01:48:40.359Z,8.70
2018-11-10T01:51:12.228Z,8.73
2018-11-10T01:53:40.530Z,8.97
2018-11-10T01:56:08.853Z,9.40
2018-11-10T01:58:37.539Z,9.57
2018-11-10T02:01:06.101Z,8.67
2018-11-10T02:03:34.469Z,8.17
2018-11-10T02:06:02.810Z,9.23
2018-11-10T02:08:31.129Z,9.17
2018-11-10T02:10:59.473Z,9.07
2018-11-10T02:13:29.046Z,8.97
2018-11-10T02:15:57.392Z,9.17
2018-11-10T02:18:25.798Z,8.20
2018-11-10T02:20:54.121Z,8.10
2018-11-10T02:23:22.507Z,7.47
2018-11-10T02:25:50.916Z,7.17
2018-11-10T02:28:19.239Z,7.53
2018-11-10T02:30:47.808Z,6.80
2018-11-10T02:33:16.183Z,6.67
2018-11-10T02:35:44.631Z,7.23
2018-11-10T02:38:13.062Z,6.83
2018-11-10T02:40:41.379Z,6.57
2018-11-10T02:43:09.667Z,6.30
2018-11-10T02:45:38.001Z,6.27
2018-11-10T02:48:06.839Z,6.40
2018-11-10T02:50:35.242Z,5.67
2018-11-10T02:53:03.792Z,6.03
2018-11-10T03:01:18.274Z,5.67
2018-11-10T03:03:46.654Z,6.03
2018-11-10T03:06:14.986Z,5.90
2018-11-10T03:08:43.313Z,5.30
2018-11-10T03:11:11.712Z,5.60
2018-11-10T03:13:40.071Z,5.80
2018-11-10T03:16:08.516Z,5.90
2018-11-10T03:18:37.050Z,5.50
2018-11-10T03:21:05.965Z,6.07
2018-11-10T03:23:34.360Z,5.50
2018-11-10T03:26:03.139Z,5.83
2018-11-10T03:28:31.470Z,5.90
2018-11-10T03:30:59.800Z,5.70
2018-11-10T03:33:28.179Z,6.00
2018-11-10T03:35:56.537Z,5.87
2018-11-10T03:38:24.864Z,6.20
2018-11-10T03:40:54.517Z,6.37
2018-11-10T03:43:22.821Z,6.03
2018-11-10T03:45:51.162Z,6.13
2018-11-10T03:48:19.450Z,5.47
2018-11-10T03:50:47.759Z,5.67
2018-11-10T03:53:16.101Z,5.97
2018-11-10T03:55:44.393Z,5.90
2018-11-10T03:58:12.689Z,5.73
2018-11-10T04:00:41.028Z,6.17
2018-11-10T04:08:57.186Z,6.10
2018-11-10T04:11:25.528Z,5.73
2018-11-10T04:13:53.856Z,6.37
2018-11-10T04:16:22.194Z,5.77
2018-11-10T04:18:50.625Z,5.30
2018-11-10T04:21:18.989Z,5.33
2018-11-10T04:23:47.383Z,4.80
2018-11-10T04:26:15.703Z,4.60
2018-11-10T04:28:44.061Z,4.50
2018-11-10T04:31:12.456Z,4.60
2018-11-10T04:33:40.786Z,4.77
2018-11-10T04:36:09.092Z,3.93
2018-11-10T04:38:37.474Z,3.80
2018-11-10T04:41:06.181Z,3.20
2018-11-10T04:43:34.536Z,3.33
2018-11-10T04:46:03.034Z,2.80
2018-11-10T04:48:31.785Z,2.57
2018-11-10T04:51:00.117Z,2.80
2018-11-10T04:53:28.464Z,2.17
2018-11-10T04:55:57.182Z,2.27
2018-11-10T04:58:25.554Z,2.70
2018-11-10T05:00:53.937Z,2.10
2018-11-10T05:03:22.272Z,1.97
2018-11-10T05:05:50.615Z,2.37
2018-11-10T05:08:19.066Z,2.23
2018-11-10T05:10:47.435Z,2.13
2018-11-10T05:13:15.791Z,2.10
2018-11-10T05:15:44.161Z,2.03
2018-11-10T05:18:12.515Z,2.17
2018-11-10T05:20:40.887Z,2.30
2018-11-10T05:23:09.256Z,2.63
2018-11-10T05:25:37.785Z,2.40
2018-11-10T05:28:06.126Z,2.40
2018-11-10T05:30:34.556Z,2.90
2018-11-10T05:33:03.737Z,2.77
2018-11-10T05:35:32.078Z,2.70
2018-11-10T05:38:00.540Z,2.70
2018-11-10T05:40:29.011Z,3.10
2018-11-10T05:42:57.833Z,3.20
2018-11-10T05:45:26.185Z,3.10
2018-11-10T05:47:54.567Z,3.17
2018-11-10T05:50:22.988Z,3.40
2018-11-10T05:52:51.386Z,3.50
2018-11-10T05:55:19.735Z,3.97
2018-11-10T05:57:48.092Z,3.90
2018-11-10T06:00:16.436Z,3.90
2018-11-10T06:02:44.799Z,3.73
2018-11-10T06:05:18.723Z,3.70
2018-11-10T06:07:47.057Z,3.77
2018-11-10T06:10:15.636Z,3.73
2018-11-10T06:12:44.253Z,3.53
2018-11-10T06:15:13.027Z,3.40
2018-11-10T06:17:41.413Z,3.77
2018-11-10T06:20:11.951Z,3.73
2018-11-10T06:22:40.409Z,4.20
2018-11-10T06:25:09.803Z,4.40
2018-11-10T06:27:43.730Z,4.10
2018-11-10T06:30:12.593Z,3.97
2018-11-10T06:32:41.154Z,4.13
2018-11-10T06:35:10.194Z,4.40
2018-11-10T06:37:38.919Z,4.10
2018-11-10T06:40:09.064Z,4.40
2018-11-10T06:42:37.420Z,4.23
2018-11-10T06:45:06.286Z,3.90
2018-11-10T06:47:34.703Z,4.37
2018-11-10T06:50:11.222Z,4.30
2018-11-10T06:52:39.795Z,4.43
2018-11-10T06:55:09.338Z,4.43
2018-11-10T06:57:37.781Z,4.70
2018-11-10T07:00:08.388Z,4.53
2018-11-10T07:02:38.706Z,4.30
2018-11-10T07:05:07.663Z,4.70
2018-11-10T07:07:36.187Z,4.97
2018-11-10T07:10:04.867Z,4.63
2018-11-10T07:12:33.837Z,5.17
2018-11-10T07:15:02.487Z,5.13
2018-11-10T07:17:31.204Z,5.87
2018-11-10T07:19:59.732Z,5.70
2018-11-10T07:22:28.116Z,6.40
2018-11-10T07:24:56.499Z,6.80
2018-11-10T07:27:25.115Z,6.97
2018-11-10T07:29:53.601Z,7.20
2018-11-10T07:32:22.004Z,6.77
2018-11-10T07:34:50.454Z,7.53
2018-11-10T07:37:18.804Z,7.47
2018-11-10T07:39:48.563Z,7.90
2018-11-10T07:42:17.040Z,7.60
2018-11-10T07:44:45.363Z,7.93
2018-11-10T07:47:13.779Z,8.43
2018-11-10T07:49:47.881Z,8.07
2018-11-10T07:52:16.182Z,8.50
2018-11-10T07:54:44.549Z,9.67
2018-11-10T07:57:12.848Z,8.90
2018-11-10T07:59:41.189Z,9.20
2018-11-10T08:02:09.491Z,8.80
2018-11-10T08:04:37.796Z,8.80
2018-11-10T08:07:06.207Z,9.10
2018-11-10T08:09:34.589Z,8.83
2018-11-10T08:12:03.093Z,9.10
2018-11-10T08:14:31.575Z,9.17
2018-11-10T08:16:59.900Z,9.27
2018-11-10T08:19:28.261Z,9.73
2018-11-10T08:21:56.609Z,9.70
2018-11-10T08:24:24.960Z,10.40
2018-11-10T08:26:53.305Z,10.10
2018-11-10T08:29:21.682Z,9.93
2018-11-10T08:31:50.017Z,10.63
2018-11-10T08:34:18.492Z,10.33
2018-11-10T08:36:46.931Z,9.53
2018-11-10T08:39:15.441Z,9.70
2018-11-10T08:41:44.141Z,8.93
2018-11-10T08:44:12.486Z,8.70
2018-11-10T08:46:41.054Z,8.40
2018-11-10T08:49:09.492Z,8.63
2018-11-10T08:57:30.367Z,7.80
2018-11-10T08:59:58.969Z,8.27
2018-11-10T09:02:27.383Z,7.13
2018-11-10T09:04:55.837Z,7.03
2018-11-10T09:07:24.272Z,6.13
2018-11-10T09:09:52.880Z,6.27
2018-11-10T09:12:22.172Z,5.87
2018-11-10T09:14:50.985Z,5.40
2018-11-10T09:17:19.719Z,5.30
2018-11-10T09:19:49.166Z,5.80
2018-11-10T09:22:18.170Z,5.60
2018-11-10T09:24:47.010Z,6.17
2018-11-10T09:27:15.398Z,5.93
2018-11-10T09:29:44.247Z,5.93
2018-11-10T09:32:12.748Z,6.30
2018-11-10T09:34:41.094Z,5.83
2018-11-10T09:37:09.437Z,6.07
2018-11-10T09:39:37.803Z,5.17
2018-11-10T09:42:06.881Z,5.47
2018-11-10T09:44:35.455Z,4.90
2018-11-10T09:47:03.780Z,5.00
2018-11-10T09:49:32.089Z,5.10
2018-11-10T09:52:09.565Z,5.03
2018-11-10T09:54:38.218Z,4.67
2018-11-10T09:57:06.599Z,4.93
2018-11-10T09:59:35.449Z,4.72
2018-11-10T10:02:04.404Z,4.43
2018-11-10T10:04:32.722Z,4.33
2018-11-10T10:07:01.064Z,4.00
2018-11-10T10:09:29.363Z,4.30
2018-11-10T10:11:58.275Z,3.98
2018-11-10T10:14:26.586Z,4.22
2018-11-10T10:16:54.942Z,3.90
2018-11-10T10:19:23.304Z,3.83
2018-11-10T10:21:53.493Z,4.20
2018-11-10T10:24:22.487Z,3.75
2018-11-10T10:26:51.359Z,3.70
2018-11-10T10:29:21.310Z,3.80
2018-11-10T10:31:50.342Z,3.67
2018-11-10T10:34:22.441Z,3.67
2018-11-10T10:39:27.726Z,3.25
2018-11-10T10:41:56.971Z,3.27
2018-11-10T10:44:26.015Z,3.10
2018-11-10T10:46:58.019Z,2.80
2018-11-10T10:49:26.920Z,2.90
2018-11-10T10:51:55.768Z,2.87
2018-11-10T10:54:24.673Z,2.75
2018-11-10T10:56:53.624Z,2.65
2018-11-10T10:59:22.681Z,3.08
2018-11-10T11:04:04.426Z,3.05
2018-11-10T11:06:33.382Z,3.00
2018-11-10T11:09:02.347Z,3.00
2018-11-10T11:11:39.894Z,3.25
2018-11-10T11:14:08.848Z,3.02
2018-11-10T11:16:37.759Z,3.70
2018-11-10T11:19:06.784Z,3.60
2018-11-10T11:21:35.707Z,3.70
2018-11-10T11:24:05.151Z,3.98
2018-11-10T11:26:34.382Z,3.75
2018-11-10T11:29:03.362Z,3.70
2018-11-10T11:31:32.434Z,3.67
2018-11-10T11:34:01.676Z,3.60
2018-11-10T11:36:30.576Z,3.50
2018-11-10T11:38:59.475Z,3.77
2018-11-10T11:41:28.636Z,3.52
2018-11-10T11:43:57.581Z,3.27
2018-11-10T11:46:26.519Z,3.45
2018-11-10T11:51:30.103Z,3.10
2018-11-10T11:53:59.034Z,2.85
2018-11-10T11:56:28.386Z,3.00
2018-11-10T12:04:06.295Z,3.17
2018-11-10T12:06:35.249Z,3.15
2018-11-10T12:09:05.721Z,2.95
2018-11-10T12:11:34.735Z,3.45
2018-11-10T12:14:03.958Z,2.95
2018-11-10T12:16:41.415Z,3.08
2018-11-10T12:19:10.660Z,3.33
2018-11-10T12:21:39.670Z,3.20
2018-11-10T12:24:09.073Z,3.27
2018-11-10T12:26:38.045Z,3.50
2018-11-10T12:29:07.632Z,3.62
2018-11-10T12:31:48.482Z,3.55
2018-11-10T12:34:18.032Z,3.58
2018-11-10T12:36:47.120Z,3.98
2018-11-10T12:39:16.149Z,3.85
2018-11-10T12:41:45.416Z,3.25
2018-11-10T12:44:14.425Z,3.80
2018-11-10T12:46:43.408Z,3.55
2018-11-10T12:49:12.716Z,3.50
2018-11-10T12:51:42.085Z,3.47
2018-11-10T12:54:11.120Z,3.60
2018-11-10T12:56:41.011Z,3.33
2018-11-10T12:59:10.173Z,3.60
2018-11-10T13:01:39.214Z,4.10
2018-11-10T13:04:08.687Z,4.03
2018-11-10T13:06:37.689Z,3.80
2018-11-10T13:09:08.306Z,3.67
2018-11-10T13:11:37.920Z,3.55
2018-11-10T13:14:09.154Z,4.42
2018-11-10T13:16:38.316Z,3.75
2018-11-10T13:19:08.571Z,3.62
2018-11-10T13:21:38.100Z,3.52
2018-11-10T13:24:07.195Z,3.15
2018-11-10T13:26:36.402Z,4.08
2018-11-10T13:29:05.905Z,3.30
2018-11-10T13:31:35.050Z,3.77
2018-11-10T13:34:05.076Z,3.67
2018-11-10T13:36:34.180Z,3.77
2018-11-10T13:39:03.439Z,3.27
2018-11-10T13:41:33.267Z,3.30
2018-11-10T13:44:02.579Z,3.90
2018-11-10T13:46:31.944Z,3.60
2018-11-10T13:49:00.958Z,3.60
2018-11-10T13:51:30.237Z,3.15
2018-11-10T13:53:59.327Z,3.58
2018-11-10T13:56:34.873Z,3.60
2018-11-10T13:59:04.077Z,3.10
2018-11-10T14:01:33.155Z,3.17
2018-11-10T14:04:02.197Z,3.45
2018-11-10T14:06:30.604Z,3.20
2018-11-10T14:08:59.492Z,4.17
2018-11-10T14:11:28.368Z,5.00
2018-11-10T14:13:57.730Z,4.47
2018-11-10T14:16:26.123Z,4.23
2018-11-10T14:18:54.968Z,4.00
2018-11-10T14:21:23.692Z,3.70
2018-11-10T14:23:52.109Z,4.50
2018-11-10T14:26:20.526Z,3.97
2018-11-10T14:28:49.009Z,4.33
2018-11-10T14:31:17.411Z,4.40
2018-11-10T14:33:45.834Z,5.07
2018-11-10T14:36:14.500Z,5.93
2018-11-10T14:38:42.825Z,5.00
2018-11-10T14:41:11.208Z,4.60
2018-11-10T14:43:39.582Z,4.50
2018-11-10T14:46:08.100Z,4.53
2018-11-10T14:48:37.277Z,4.50
2018-11-10T14:51:05.877Z,4.73
2018-11-10T14:53:34.330Z,4.73
2018-11-10T14:56:06.499Z,4.90
2018-11-10T14:58:35.027Z,4.80
2018-11-10T15:01:03.468Z,4.70
2018-11-10T15:03:31.943Z,4.53
2018-11-10T15:06:00.405Z,4.40
2018-11-10T15:08:28.801Z,4.80
2018-11-10T15:10:57.315Z,4.30
2018-11-10T15:13:25.810Z,4.57
2018-11-10T15:15:54.215Z,4.53
2018-11-10T15:18:22.827Z,4.50
2018-11-10T15:20:51.484Z,5.10
2018-11-10T15:23:20.150Z,4.80
2018-11-10T15:25:48.791Z,5.03
2018-11-10T15:28:17.148Z,4.63
2018-11-10T15:30:45.768Z,5.17
2018-11-10T15:33:14.249Z,4.83
2018-11-10T15:35:42.633Z,5.30
2018-11-10T15:38:11.279Z,6.00
2018-11-10T15:40:39.897Z,5.77
2018-11-10T15:43:08.388Z,6.00
2018-11-10T15:45:36.742Z,5.80
2018-11-10T15:48:05.121Z,6.20
2018-11-10T15:50:33.680Z,6.40
2018-11-10T15:53:02.122Z,6.80
2018-11-10T15:55:31.431Z,6.60
2018-11-10T15:57:59.762Z,6.73
2018-11-10T16:00:28.285Z,7.37
2018-11-10T16:02:56.823Z,7.33
2018-11-10T16:05:25.982Z,7.10
2018-11-10T16:07:54.572Z,7.60
2018-11-10T16:10:23.197Z,7.63
2018-11-10T16:12:51.845Z,7.83
2018-11-10T16:15:20.516Z,7.80
2018-11-10T16:20:48.582Z,7.13
2018-11-10T16:23:18.036Z,7.97
2018-11-10T16:25:46.439Z,7.30
2018-11-10T16:28:15.362Z,6.87
2018-11-10T16:30:44.037Z,6.73
2018-11-10T16:33:12.556Z,7.43
2018-11-10T16:35:41.121Z,7.37
2018-11-10T16:38:09.774Z,7.80
2018-11-10T16:40:38.221Z,6.63
2018-11-10T16:46:02.402Z,6.10
2018-11-10T16:48:30.834Z,6.23
2018-11-10T16:50:59.409Z,7.17
2018-11-10T16:53:28.064Z,9.17
2018-11-10T16:55:56.603Z,10.17
2018-11-10T16:58:25.150Z,10.40
2018-11-10T17:00:53.749Z,9.43
2018-11-10T17:03:22.241Z,9.30
2018-11-10T17:05:50.720Z,8.97
2018-11-10T17:08:20.129Z,8.17
2018-11-10T17:10:48.707Z,6.37
2018-11-10T17:13:17.251Z,6.43
2018-11-10T17:15:46.546Z,6.20
2018-11-10T17:18:14.942Z,6.43
2018-11-10T17:20:43.457Z,7.10
2018-11-10T17:23:12.413Z,6.97
2018-11-10T17:25:40.743Z,6.67
2018-11-10T17:28:09.151Z,6.27
2018-11-10T17:30:37.523Z,6.63
2018-11-10T17:33:07.151Z,6.73
2018-11-10T17:35:35.749Z,7.20
2018-11-10T17:38:04.429Z,6.67
2018-11-10T17:40:33.278Z,7.47
2018-11-10T17:43:01.738Z,7.80
2018-11-10T17:45:30.181Z,8.07
2018-11-10T17:47:58.577Z,8.63
2018-11-10T17:50:26.964Z,8.67
2018-11-10T17:52:55.322Z,9.97
2018-11-10T17:55:23.690Z,10.47
2018-11-10T17:57:52.144Z,10.47
2018-11-10T18:00:20.684Z,11.40
2018-11-10T18:02:49.057Z,11.13
2018-11-10T18:05:18.026Z,12.03
2018-11-10T18:07:46.770Z,11.97
2018-11-10T18:10:16.996Z,12.13
2018-11-10T18:12:46.025Z,11.10
2018-11-10T18:15:14.920Z,10.70
2018-11-10T18:17:43.601Z,11.13
2018-11-10T18:20:13.548Z,12.00
2018-11-10T18:22:41.951Z,13.67
2018-11-10T18:25:10.413Z,13.07
2018-11-10T18:27:38.904Z,13.03
2018-11-10T18:30:08.955Z,14.20
2018-11-10T18:32:37.483Z,14.87
2018-11-10T18:35:07.114Z,16.30
2018-11-10T18:37:35.729Z,16.77
2018-11-10T18:40:04.934Z,17.23
2018-11-10T18:42:33.430Z,15.97
2018-11-10T18:45:01.800Z,15.30
2018-11-10T18:47:30.266Z,15.67
2018-11-10T18:49:59.746Z,15.27
2018-11-10T18:52:28.373Z,15.73
2018-11-10T18:54:56.967Z,14.80
2018-11-10T18:57:25.640Z,14.17
2018-11-10T18:59:54.224Z,14.80
2018-11-10T19:02:22.665Z,15.17
2018-11-10T19:04:51.230Z,15.17
2018-11-10T19:07:19.722Z,15.70
2018-11-10T19:09:48.193Z,15.97
2018-11-10T19:12:16.647Z,16.70
2018-11-10T19:14:45.101Z,16.13
2018-11-10T19:17:13.682Z,16.33
2018-11-10T19:19:42.070Z,16.87
2018-11-10T19:22:10.677Z,16.73
2018-11-10T19:24:39.185Z,16.57
2018-11-10T19:27:07.569Z,16.13
2018-11-10T19:29:36.043Z,16.60
2018-11-10T19:32:04.526Z,17.20
2018-11-10T19:34:33.094Z,15.77
2018-11-10T19:37:01.865Z,16.47
2018-11-10T19:39:30.294Z,16.17
2018-11-10T19:41:58.790Z,16.17
2018-11-10T19:44:27.314Z,16.27
2018-11-10T19:46:56.813Z,15.97
2018-11-10T19:49:25.394Z,16.00
2018-11-10T19:51:53.888Z,16.30
2018-11-10T19:54:22.410Z,24.30
2018-11-10T19:56:50.835Z,17.03
2018-11-10T19:59:19.227Z,18.37
2018-11-10T20:01:47.625Z,19.70
2018-11-10T20:04:16.089Z,21.03
2018-11-10T20:06:44.448Z,22.57
2018-11-10T20:09:13.061Z,27.17
2018-11-10T20:11:42.163Z,23.37
2018-11-10T20:14:10.625Z,21.67
2018-11-10T20:16:39.066Z,18.73
2018-11-10T20:19:07.464Z,17.67
2018-11-10T20:21:35.945Z,16.87
2018-11-10T20:24:07.087Z,16.53
2018-11-10T20:26:36.330Z,16.20
2018-11-10T20:29:04.740Z,16.27
2018-11-10T20:31:33.198Z,16.33
2018-11-10T20:34:01.996Z,16.13
2018-11-10T20:36:30.405Z,14.77
2018-11-10T20:38:59.032Z,15.13
2018-11-10T20:41:27.650Z,15.33
2018-11-10T20:43:56.115Z,15.10
2018-11-10T20:46:24.569Z,15.50
2018-11-10T20:48:53.036Z,14.97
2018-11-10T20:51:21.451Z,14.57
2018-11-10T20:53:49.853Z,15.43
2018-11-10T20:56:18.266Z,16.53
2018-11-10T20:58:46.678Z,17.23
2018-11-10T21:01:15.130Z,15.80
2018-11-10T21:03:43.516Z,15.77
2018-11-10T21:06:12.002Z,15.20
2018-11-10T21:08:40.445Z,14.80
2018-11-10T21:11:08.870Z,15.07
2018-11-10T21:13:37.253Z,15.00
2018-11-10T21:16:05.842Z,15.07
2018-11-10T21:18:34.402Z,15.13
2018-11-10T21:21:02.971Z,15.13
2018-11-10T21:23:31.390Z,15.50
2018-11-10T21:25:59.924Z,14.57
2018-11-10T21:28:28.630Z,14.70
2018-11-10T21:30:57.145Z,15.30
2018-11-10T21:33:25.760Z,14.77
2018-11-10T21:35:54.459Z,14.33
2018-11-10T21:38:23.171Z,14.87
2018-11-10T21:40:51.599Z,15.23
2018-11-10T21:43:20.034Z,14.37
2018-11-10T21:45:48.498Z,15.83
2018-11-10T21:48:16.945Z,15.53
2018-11-10T21:50:45.513Z,15.73
2018-11-10T21:53:13.976Z,14.53
2018-11-10T21:55:42.564Z,15.23
2018-11-10T21:58:11.016Z,14.67
2018-11-10T22:00:39.754Z,15.77
2018-11-10T22:03:08.286Z,14.27
2018-11-10T22:05:36.872Z,15.27
2018-11-10T22:08:05.586Z,14.63
2018-11-10T22:10:34.241Z,14.87
2018-11-10T22:13:02.823Z,14.33
2018-11-10T22:15:31.228Z,15.40
2018-11-10T22:17:59.688Z,14.50
2018-11-10T22:20:28.181Z,14.83
2018-11-10T22:22:56.584Z,15.77
2018-11-10T22:25:25.154Z,12.87
2018-11-10T22:27:54.367Z,14.63
2018-11-10T22:30:23.266Z,15.37
2018-11-10T22:35:44.706Z,15.27
2018-11-10T22:38:13.186Z,14.87
2018-11-10T22:40:41.696Z,14.83
2018-11-10T22:43:10.276Z,14.97
2018-11-10T22:45:38.705Z,14.87
2018-11-10T22:48:07.203Z,13.47
2018-11-10T22:50:35.727Z,14.80
2018-11-10T22:53:04.733Z,13.90
2018-11-10T22:55:33.207Z,14.00
2018-11-10T22:58:01.629Z,14.37
2018-11-10T23:00:30.167Z,13.50
2018-11-10T23:03:00.087Z,13.57
2018-11-10T23:05:28.613Z,13.03
2018-11-10T23:07:57.114Z,12.77
2018-11-10T23:10:25.660Z,13.17
2018-11-10T23:12:54.665Z,14.00
2018-11-10T23:15:23.144Z,13.83
2018-11-10T23:17:52.034Z,13.70
2018-11-10T23:20:20.860Z,13.60
2018-11-10T23:22:49.462Z,14.13
2018-11-10T23:25:18.596Z,13.43
2018-11-10T23:27:46.974Z,13.30
2018-11-10T23:30:18.818Z,13.40
2018-11-10T23:32:47.307Z,14.53
2018-11-10T23:35:15.757Z,14.07
2018-11-10T23:37:44.275Z,13.57
2018-11-10T23:40:13.991Z,13.40
2018-11-10T23:42:43.503Z,13.30
2018-11-10T23:45:12.827Z,14.33
2018-11-10T23:47:41.447Z,13.93
2018-11-10T23:50:12.085Z,13.23
2018-11-10T23:52:40.705Z,13.90
2018-11-10T23:55:10.408Z,13.83
2018-11-10T23:57:39.362Z,13.40
